sensor_id;sensor_type;location;lat;lon;timestamp;pressure;altitude;pressure_sealevel;temperature;humidity
9187;BME280;7273;48.902;9.410;2024-03-23T00:54:03;97301.41;;;9.92;65.95
9187;BME280;7273;48.902;9.410;2024-03-23T00:56:29;97300.69;;;9.87;65.83
9187;BME280;7273;48.902;9.410;2024-03-23T00:58:54;97292.56;;;9.87;65.74
9187;BME280;7273;48.902;9.410;2024-03-23T01:01:20;97276.44;;;9.82;66.04
9187;BME280;7273;48.902;9.410;2024-03-23T01:03:46;97273.16;;;9.85;65.94
9187;BME280;7273;48.902;9.410;2024-03-23T01:06:11;97279.56;;;9.89;65.92
9187;BME280;7273;48.902;9.410;2024-03-23T01:08:37;97271.25;;;9.85;65.99
9187;BME280;7273;48.902;9.410;2024-03-23T01:11:03;97267.97;;;9.88;65.88
9187;BME280;7273;48.902;9.410;2024-03-23T01:13:28;97267.69;;;9.90;65.80
9187;BME280;7273;48.902;9.410;2024-03-23T01:15:55;97259.44;;;10.00;65.60
9187;BME280;7273;48.902;9.410;2024-03-23T01:18:23;97260.44;;;10.04;65.64
9187;BME280;7273;48.902;9.410;2024-03-23T01:20:49;97261.16;;;10.14;65.21
9187;BME280;7273;48.902;9.410;2024-03-23T01:23:15;97264.06;;;10.18;65.26
9187;BME280;7273;48.902;9.410;2024-03-23T01:25:41;97259.59;;;10.27;64.83
9187;BME280;7273;48.902;9.410;2024-03-23T01:28:07;97253.22;;;10.36;64.38
9187;BME280;7273;48.902;9.410;2024-03-23T01:30:33;97250.94;;;10.43;64.27
9187;BME280;7273;48.902;9.410;2024-03-23T01:33:00;97240.06;;;10.48;64.11
9187;BME280;7273;48.902;9.410;2024-03-23T01:35:26;97228.72;;;10.46;64.42
9187;BME280;7273;48.902;9.410;2024-03-23T01:37:52;97225.44;;;10.49;64.33
9187;BME280;7273;48.902;9.410;2024-03-23T01:40:18;97228.66;;;10.51;64.55
9187;BME280;7273;48.902;9.410;2024-03-23T01:42:57;97229.47;;;10.52;64.79
9187;BME280;7273;48.902;9.410;2024-03-23T01:45:22;97226.66;;;10.57;64.82
9187;BME280;7273;48.902;9.410;2024-03-23T01:47:50;97221.66;;;10.64;64.15
9187;BME280;7273;48.902;9.410;2024-03-23T01:50:16;97220.50;;;10.70;64.17
9187;BME280;7273;48.902;9.410;2024-03-23T01:52:41;97204.19;;;10.75;64.11
9187;BME280;7273;48.902;9.410;2024-03-23T01:55:07;97202.97;;;10.81;64.13
9187;BME280;7273;48.902;9.410;2024-03-23T01:57:33;97204.16;;;10.88;63.80
9187;BME280;7273;48.902;9.410;2024-03-23T01:59:58;97198.66;;;10.94;63.84
9187;BME280;7273;48.902;9.410;2024-03-23T02:02:24;97189.06;;;11.01;63.62
9187;BME280;7273;48.902;9.410;2024-03-23T02:04:50;97181.06;;;11.10;63.57
9187;BME280;7273;48.902;9.410;2024-03-23T02:07:16;97188.47;;;11.18;63.10
9187;BME280;7273;48.902;9.410;2024-03-23T02:09:41;97176.44;;;11.24;63.26
9187;BME280;7273;48.902;9.410;2024-03-23T02:12:08;97167.59;;;11.32;63.27
9187;BME280;7273;48.902;9.410;2024-03-23T02:14:34;97169.28;;;11.41;63.30
9187;BME280;7273;48.902;9.410;2024-03-23T02:16:59;97165.66;;;11.46;63.33
9187;BME280;7273;48.902;9.410;2024-03-23T02:19:25;97159.06;;;11.52;63.28
9187;BME280;7273;48.902;9.410;2024-03-23T02:21:50;97175.06;;;11.62;63.00
9187;BME280;7273;48.902;9.410;2024-03-23T02:24:16;97161.72;;;11.65;62.95
9187;BME280;7273;48.902;9.410;2024-03-23T02:26:42;97161.63;;;11.70;63.13
9187;BME280;7273;48.902;9.410;2024-03-23T02:29:07;97156.91;;;11.76;63.08
9187;BME280;7273;48.902;9.410;2024-03-23T02:31:34;97161.09;;;11.82;63.07
9187;BME280;7273;48.902;9.410;2024-03-23T02:33:59;97165.72;;;11.81;63.21
9187;BME280;7273;48.902;9.410;2024-03-23T02:36:25;97148.22;;;11.87;63.04
9187;BME280;7273;48.902;9.410;2024-03-23T02:38:50;97148.13;;;11.92;63.04
9187;BME280;7273;48.902;9.410;2024-03-23T02:41:15;97142.69;;;11.92;63.06
9187;BME280;7273;48.902;9.410;2024-03-23T02:43:49;97139.19;;;11.92;63.14
9187;BME280;7273;48.902;9.410;2024-03-23T02:46:14;97140.19;;;11.96;62.94
9187;BME280;7273;48.902;9.410;2024-03-23T02:48:40;97138.25;;;11.96;63.12
9187;BME280;7273;48.902;9.410;2024-03-23T02:51:05;97147.63;;;11.90;62.95
9187;BME280;7273;48.902;9.410;2024-03-23T02:53:30;97139.19;;;11.92;63.06
9187;BME280;7273;48.902;9.410;2024-03-23T02:55:58;97133.44;;;11.93;63.25
9187;BME280;7273;48.902;9.410;2024-03-23T02:58:23;97130.44;;;11.95;63.09
9187;BME280;7273;48.902;9.410;2024-03-23T03:00:49;97125.50;;;11.97;63.11
9187;BME280;7273;48.902;9.410;2024-03-23T03:03:14;97123.59;;;11.97;63.01
9187;BME280;7273;48.902;9.410;2024-03-23T03:05:39;97122.00;;;11.96;63.17
9187;BME280;7273;48.902;9.410;2024-03-23T03:08:05;97126.81;;;11.99;63.06
9187;BME280;7273;48.902;9.410;2024-03-23T03:10:30;97127.13;;;11.98;63.37
9187;BME280;7273;48.902;9.410;2024-03-23T03:12:57;97121.88;;;12.01;63.20
9187;BME280;7273;48.902;9.410;2024-03-23T03:15:23;97122.56;;;12.07;63.17
9187;BME280;7273;48.902;9.410;2024-03-23T03:17:48;97124.28;;;12.03;63.48
9187;BME280;7273;48.902;9.410;2024-03-23T03:20:14;97111.22;;;12.05;63.43
9187;BME280;7273;48.902;9.410;2024-03-23T03:22:41;97108.50;;;12.05;63.45
9187;BME280;7273;48.902;9.410;2024-03-23T03:25:06;97095.78;;;12.05;63.50
9187;BME280;7273;48.902;9.410;2024-03-23T03:27:32;97104.84;;;12.01;63.51
9187;BME280;7273;48.902;9.410;2024-03-23T03:29:58;97110.06;;;11.97;63.73
9187;BME280;7273;48.902;9.410;2024-03-23T03:32:25;97108.88;;;11.90;64.10
9187;BME280;7273;48.902;9.410;2024-03-23T03:34:50;97109.47;;;11.78;64.38
9187;BME280;7273;48.902;9.410;2024-03-23T03:37:15;97106.13;;;11.81;64.25
9187;BME280;7273;48.902;9.410;2024-03-23T03:39:41;97097.94;;;11.73;64.47
9187;BME280;7273;48.902;9.410;2024-03-23T03:42:06;97098.56;;;11.70;64.42
9187;BME280;7273;48.902;9.410;2024-03-23T03:44:33;97093.34;;;11.60;64.79
9187;BME280;7273;48.902;9.410;2024-03-23T03:46:58;97098.47;;;11.48;64.89
9187;BME280;7273;48.902;9.410;2024-03-23T03:49:23;97089.56;;;11.47;65.06
9187;BME280;7273;48.902;9.410;2024-03-23T03:51:49;97097.31;;;11.40;65.14
9187;BME280;7273;48.902;9.410;2024-03-23T03:54:14;97090.13;;;11.36;65.11
9187;BME280;7273;48.902;9.410;2024-03-23T03:56:39;97087.88;;;11.38;65.02
9187;BME280;7273;48.902;9.410;2024-03-23T03:59:05;97078.41;;;11.27;65.18
9187;BME280;7273;48.902;9.410;2024-03-23T04:01:30;97077.28;;;11.28;65.25
9187;BME280;7273;48.902;9.410;2024-03-23T04:03:56;97070.56;;;11.25;65.20
9187;BME280;7273;48.902;9.410;2024-03-23T04:06:21;97046.94;;;11.17;65.36
9187;BME280;7273;48.902;9.410;2024-03-23T04:08:46;97038.13;;;11.12;65.32
9187;BME280;7273;48.902;9.410;2024-03-23T04:11:12;97031.56;;;11.04;65.57
9187;BME280;7273;48.902;9.410;2024-03-23T04:13:37;97031.34;;;11.01;65.44
9187;BME280;7273;48.902;9.410;2024-03-23T04:16:03;97032.59;;;10.95;65.66
9187;BME280;7273;48.902;9.410;2024-03-23T04:18:28;97032.28;;;10.82;65.89
9187;BME280;7273;48.902;9.410;2024-03-23T04:20:54;97024.59;;;10.76;66.09
9187;BME280;7273;48.902;9.410;2024-03-23T04:23:19;97009.69;;;10.78;65.98
9187;BME280;7273;48.902;9.410;2024-03-23T04:25:46;97010.97;;;10.81;65.96
9187;BME280;7273;48.902;9.410;2024-03-23T04:28:11;97002.84;;;10.81;66.03
9187;BME280;7273;48.902;9.410;2024-03-23T04:30:37;97006.34;;;10.81;66.06
9187;BME280;7273;48.902;9.410;2024-03-23T04:33:02;97013.34;;;10.82;66.07
9187;BME280;7273;48.902;9.410;2024-03-23T04:35:28;97027.69;;;10.83;66.16
9187;BME280;7273;48.902;9.410;2024-03-23T04:37:53;97049.63;;;10.81;66.29
9187;BME280;7273;48.902;9.410;2024-03-23T04:40:20;97078.06;;;10.79;66.28
9187;BME280;7273;48.902;9.410;2024-03-23T04:42:46;97102.72;;;10.77;67.80
9187;BME280;7273;48.902;9.410;2024-03-23T04:45:11;97099.72;;;10.65;74.19
9187;BME280;7273;48.902;9.410;2024-03-23T04:47:40;97100.91;;;10.59;73.69
9187;BME280;7273;48.902;9.410;2024-03-23T04:50:06;97096.91;;;10.57;73.71
9187;BME280;7273;48.902;9.410;2024-03-23T04:52:31;97096.50;;;10.50;74.47
9187;BME280;7273;48.902;9.410;2024-03-23T04:54:57;97089.28;;;10.45;75.48
9187;BME280;7273;48.902;9.410;2024-03-23T04:57:22;97089.09;;;10.42;76.25
9187;BME280;7273;48.902;9.410;2024-03-23T04:59:48;97078.38;;;10.37;74.69
9187;BME280;7273;48.902;9.410;2024-03-23T05:02:14;97067.03;;;10.35;72.65
9187;BME280;7273;48.902;9.410;2024-03-23T05:04:40;97078.38;;;10.37;72.37
9187;BME280;7273;48.902;9.410;2024-03-23T05:07:08;97084.88;;;10.36;72.99
9187;BME280;7273;48.902;9.410;2024-03-23T05:09:33;97074.66;;;10.33;72.44
9187;BME280;7273;48.902;9.410;2024-03-23T05:11:59;97086.25;;;10.33;72.29
9187;BME280;7273;48.902;9.410;2024-03-23T05:14:28;97085.28;;;10.29;73.22
9187;BME280;7273;48.902;9.410;2024-03-23T05:16:54;97080.16;;;10.28;74.19
9187;BME280;7273;48.902;9.410;2024-03-23T05:19:19;97080.16;;;10.28;73.25
9187;BME280;7273;48.902;9.410;2024-03-23T05:21:44;97076.34;;;10.29;73.48
9187;BME280;7273;48.902;9.410;2024-03-23T05:24:11;97080.75;;;10.25;74.83
9187;BME280;7273;48.902;9.410;2024-03-23T05:26:37;97085.66;;;10.23;78.38
9187;BME280;7273;48.902;9.410;2024-03-23T05:29:02;97092.97;;;10.22;77.48
9187;BME280;7273;48.902;9.410;2024-03-23T05:31:30;97099.44;;;10.21;78.86
9187;BME280;7273;48.902;9.410;2024-03-23T05:33:56;97098.66;;;10.21;78.04
9187;BME280;7273;48.902;9.410;2024-03-23T05:36:21;97105.06;;;10.25;76.96
9187;BME280;7273;48.902;9.410;2024-03-23T05:38:47;97101.88;;;10.23;76.96
9187;BME280;7273;48.902;9.410;2024-03-23T05:41:13;97100.47;;;10.25;75.78
9187;BME280;7273;48.902;9.410;2024-03-23T05:43:38;97109.97;;;10.23;77.50
9187;BME280;7273;48.902;9.410;2024-03-23T05:46:04;97108.38;;;10.22;81.00
9187;BME280;7273;48.902;9.410;2024-03-23T05:48:33;97108.38;;;10.22;78.06
9187;BME280;7273;48.902;9.410;2024-03-23T05:50:59;97125.16;;;10.19;82.29
9187;BME280;7273;48.902;9.410;2024-03-23T05:53:24;97141.91;;;10.21;79.74
9187;BME280;7273;48.902;9.410;2024-03-23T05:55:50;97151.38;;;10.18;79.01
9187;BME280;7273;48.902;9.410;2024-03-23T05:58:17;97151.47;;;10.13;80.46
9187;BME280;7273;48.902;9.410;2024-03-23T06:00:43;97148.47;;;10.15;77.14
9187;BME280;7273;48.902;9.410;2024-03-23T06:03:09;97154.47;;;10.12;77.10
9187;BME280;7273;48.902;9.410;2024-03-23T06:05:36;97157.28;;;10.02;79.66
9187;BME280;7273;48.902;9.410;2024-03-23T06:08:01;97168.41;;;10.00;78.06
9187;BME280;7273;48.902;9.410;2024-03-23T06:10:26;97163.38;;;9.94;80.48
9187;BME280;7273;48.902;9.410;2024-03-23T06:12:52;97161.25;;;9.91;80.03
9187;BME280;7273;48.902;9.410;2024-03-23T06:15:21;97150.03;;;9.84;80.12
9187;BME280;7273;48.902;9.410;2024-03-23T06:17:48;97162.53;;;9.80;79.64
9187;BME280;7273;48.902;9.410;2024-03-23T06:20:13;97170.91;;;9.78;78.71
9187;BME280;7273;48.902;9.410;2024-03-23T06:22:39;97172.28;;;9.76;78.87
9187;BME280;7273;48.902;9.410;2024-03-23T06:25:05;97164.56;;;9.69;80.33
9187;BME280;7273;48.902;9.410;2024-03-23T06:27:31;97182.16;;;9.67;79.66
9187;BME280;7273;48.902;9.410;2024-03-23T06:29:58;97194.31;;;9.64;78.95
9187;BME280;7273;48.902;9.410;2024-03-23T06:32:23;97198.13;;;9.63;77.51
9187;BME280;7273;48.902;9.410;2024-03-23T06:34:49;97173.84;;;9.63;77.98
9187;BME280;7273;48.902;9.410;2024-03-23T06:37:14;97163.84;;;9.64;76.15
9187;BME280;7273;48.902;9.410;2024-03-23T06:39:39;97185.22;;;9.60;77.18
9187;BME280;7273;48.902;9.410;2024-03-23T06:42:05;97210.31;;;9.61;77.54
9187;BME280;7273;48.902;9.410;2024-03-23T06:44:31;97218.41;;;9.61;77.61
9187;BME280;7273;48.902;9.410;2024-03-23T06:46:56;97231.41;;;9.59;77.13
9187;BME280;7273;48.902;9.410;2024-03-23T06:49:25;97236.56;;;9.55;78.35
9187;BME280;7273;48.902;9.410;2024-03-23T06:51:50;97247.72;;;9.48;79.74
9187;BME280;7273;48.902;9.410;2024-03-23T06:54:19;97251.50;;;9.47;77.34
9187;BME280;7273;48.902;9.410;2024-03-23T06:56:45;97256.91;;;9.47;76.36
9187;BME280;7273;48.902;9.410;2024-03-23T06:59:10;97259.31;;;9.49;75.96
9187;BME280;7273;48.902;9.410;2024-03-23T07:01:36;97266.16;;;9.41;76.43
9187;BME280;7273;48.902;9.410;2024-03-23T07:04:01;97262.88;;;9.44;76.74
9187;BME280;7273;48.902;9.410;2024-03-23T07:06:27;97273.50;;;9.36;79.60
9187;BME280;7273;48.902;9.410;2024-03-23T07:08:53;97267.88;;;9.32;79.73
9187;BME280;7273;48.902;9.410;2024-03-23T07:11:20;97288.38;;;9.33;78.63
9187;BME280;7273;48.902;9.410;2024-03-23T07:13:45;97286.72;;;9.37;75.55
9187;BME280;7273;48.902;9.410;2024-03-23T07:16:11;97298.34;;;9.33;78.71
9187;BME280;7273;48.902;9.410;2024-03-23T07:18:36;97305.13;;;9.30;77.68
9187;BME280;7273;48.902;9.410;2024-03-23T07:21:02;97311.09;;;9.27;78.68
9187;BME280;7273;48.902;9.410;2024-03-23T07:23:28;97299.78;;;9.25;78.08
9187;BME280;7273;48.902;9.410;2024-03-23T07:26:04;97310.63;;;9.20;78.36
9187;BME280;7273;48.902;9.410;2024-03-23T07:28:33;97319.00;;;9.19;77.44
9187;BME280;7273;48.902;9.410;2024-03-23T07:31:07;97315.78;;;9.17;77.67
9187;BME280;7273;48.902;9.410;2024-03-23T07:33:37;97323.06;;;9.21;76.45
9187;BME280;7273;48.902;9.410;2024-03-23T07:36:03;97326.25;;;9.23;76.73
9187;BME280;7273;48.902;9.410;2024-03-23T07:38:29;97323.06;;;9.21;76.64
9187;BME280;7273;48.902;9.410;2024-03-23T07:41:08;97321.94;;;9.22;77.45
9187;BME280;7273;48.902;9.410;2024-03-23T07:43:35;97331.88;;;9.27;76.13
9187;BME280;7273;48.902;9.410;2024-03-23T07:46:00;97319.25;;;9.22;75.82
9187;BME280;7273;48.902;9.410;2024-03-23T07:48:26;97323.78;;;9.27;75.17
9187;BME280;7273;48.902;9.410;2024-03-23T07:51:07;97331.88;;;9.27;74.85
9187;BME280;7273;48.902;9.410;2024-03-23T07:53:33;97352.16;;;9.24;77.12
9187;BME280;7273;48.902;9.410;2024-03-23T07:56:00;97349.25;;;9.16;77.46
9187;BME280;7273;48.902;9.410;2024-03-23T07:58:26;97350.63;;;9.13;77.81
9187;BME280;7273;48.902;9.410;2024-03-23T08:00:55;97358.22;;;9.11;76.37
9187;BME280;7273;48.902;9.410;2024-03-23T08:03:21;97368.97;;;9.16;75.35
9187;BME280;7273;48.902;9.410;2024-03-23T08:05:47;97373.00;;;9.14;75.96
9187;BME280;7273;48.902;9.410;2024-03-23T08:08:13;97385.69;;;9.13;76.23
9187;BME280;7273;48.902;9.410;2024-03-23T08:10:51;97396.94;;;9.20;76.92
9187;BME280;7273;48.902;9.410;2024-03-23T08:13:18;97396.09;;;9.25;76.66
9187;BME280;7273;48.902;9.410;2024-03-23T08:15:43;97385.22;;;9.06;77.49
9187;BME280;7273;48.902;9.410;2024-03-23T08:18:12;97402.16;;;9.12;75.81
9187;BME280;7273;48.902;9.410;2024-03-23T08:20:38;97408.97;;;9.04;75.80
9187;BME280;7273;48.902;9.410;2024-03-23T08:23:07;97426.56;;;8.97;76.92
9187;BME280;7273;48.902;9.410;2024-03-23T08:25:33;97434.97;;;8.90;77.10
9187;BME280;7273;48.902;9.410;2024-03-23T08:27:59;97448.00;;;8.78;77.06
9187;BME280;7273;48.902;9.410;2024-03-23T08:30:24;97450.72;;;8.73;75.69
9187;BME280;7273;48.902;9.410;2024-03-23T08:32:50;97441.09;;;8.62;76.07
9187;BME280;7273;48.902;9.410;2024-03-23T08:35:15;97454.63;;;8.52;76.68
9187;BME280;7273;48.902;9.410;2024-03-23T08:37:40;97462.16;;;8.55;75.70
9187;BME280;7273;48.902;9.410;2024-03-23T08:40:06;97481.06;;;8.45;78.17
9187;BME280;7273;48.902;9.410;2024-03-23T08:42:33;97505.31;;;8.45;76.85
9187;BME280;7273;48.902;9.410;2024-03-23T08:44:59;97519.06;;;8.44;76.56
9187;BME280;7273;48.902;9.410;2024-03-23T08:47:24;97532.78;;;8.47;76.79
9187;BME280;7273;48.902;9.410;2024-03-23T08:49:49;97535.47;;;8.52;77.14
9187;BME280;7273;48.902;9.410;2024-03-23T08:52:15;97544.09;;;8.49;78.85
9187;BME280;7273;48.902;9.410;2024-03-23T08:54:40;97535.72;;;8.56;76.82
9187;BME280;7273;48.902;9.410;2024-03-23T08:57:05;97529.53;;;8.50;78.80
9187;BME280;7273;48.902;9.410;2024-03-23T08:59:32;97513.06;;;8.62;78.10
9187;BME280;7273;48.902;9.410;2024-03-23T09:01:57;97500.56;;;8.76;78.64
9187;BME280;7273;48.902;9.410;2024-03-23T09:04:23;97503.16;;;8.96;76.88
9187;BME280;7273;48.902;9.410;2024-03-23T09:06:48;97505.56;;;8.97;77.30
9187;BME280;7273;48.902;9.410;2024-03-23T09:09:14;97523.72;;;8.87;77.51
9187;BME280;7273;48.902;9.410;2024-03-23T09:11:39;97526.09;;;8.93;77.14
9187;BME280;7273;48.902;9.410;2024-03-23T09:14:04;97556.00;;;8.97;75.44
9187;BME280;7273;48.902;9.410;2024-03-23T09:16:30;97565.72;;;8.93;75.73
9187;BME280;7273;48.902;9.410;2024-03-23T09:18:55;97562.78;;;8.89;75.00
9187;BME280;7273;48.902;9.410;2024-03-23T09:21:21;97567.09;;;8.90;74.81
9187;BME280;7273;48.902;9.410;2024-03-23T09:23:46;97571.97;;;8.88;74.70
9187;BME280;7273;48.902;9.410;2024-03-23T09:26:12;97576.53;;;8.88;73.98
9187;BME280;7273;48.902;9.410;2024-03-23T09:28:37;97584.09;;;8.86;74.52
9187;BME280;7273;48.902;9.410;2024-03-23T09:31:04;97602.72;;;8.77;74.45
9187;BME280;7273;48.902;9.410;2024-03-23T09:33:30;97598.44;;;8.76;75.00
9187;BME280;7273;48.902;9.410;2024-03-23T09:35:55;97608.66;;;8.79;74.52
9187;BME280;7273;48.902;9.410;2024-03-23T09:38:22;97606.75;;;8.85;73.81
9187;BME280;7273;48.902;9.410;2024-03-23T09:40:50;97621.25;;;8.94;72.77
9187;BME280;7273;48.902;9.410;2024-03-23T09:43:17;97611.53;;;8.98;72.45
9187;BME280;7273;48.902;9.410;2024-03-23T09:45:44;97615.38;;;8.87;72.71
9187;BME280;7273;48.902;9.410;2024-03-23T09:48:10;97610.25;;;8.90;71.76
9187;BME280;7273;48.902;9.410;2024-03-23T09:50:39;97617.03;;;8.78;71.62
9187;BME280;7273;48.902;9.410;2024-03-23T09:53:06;97606.81;;;8.70;71.64
9187;BME280;7273;48.902;9.410;2024-03-23T09:55:32;97601.13;;;8.76;71.81
9187;BME280;7273;48.902;9.410;2024-03-23T09:57:58;97584.94;;;8.81;71.61
9187;BME280;7273;48.902;9.410;2024-03-23T10:00:23;97588.28;;;9.07;71.94
9187;BME280;7273;48.902;9.410;2024-03-23T10:02:49;97591.81;;;9.02;74.47
9187;BME280;7273;48.902;9.410;2024-03-23T10:05:21;97593.19;;;9.05;73.40
9187;BME280;7273;48.902;9.410;2024-03-23T10:07:49;97591.41;;;9.29;72.69
9187;BME280;7273;48.902;9.410;2024-03-23T10:10:15;97593.09;;;9.59;73.04
9187;BME280;7273;48.902;9.410;2024-03-23T10:12:48;97592.47;;;9.72;71.67
9187;BME280;7273;48.902;9.410;2024-03-23T10:15:23;97587.19;;;10.19;71.48
9187;BME280;7273;48.902;9.410;2024-03-23T10:17:49;97582.84;;;10.46;70.30
9187;BME280;7273;48.902;9.410;2024-03-23T10:20:22;97584.91;;;10.54;69.34
9187;BME280;7273;48.902;9.410;2024-03-23T10:22:49;97571.28;;;10.64;69.04
9187;BME280;7273;48.902;9.410;2024-03-23T10:25:15;97561.41;;;10.55;67.56
9187;BME280;7273;48.902;9.410;2024-03-23T10:27:40;97565.81;;;10.46;66.89
9187;BME280;7273;48.902;9.410;2024-03-23T10:30:11;97561.72;;;10.25;65.91
9187;BME280;7273;48.902;9.410;2024-03-23T10:32:38;97563.53;;;10.34;67.55
9187;BME280;7273;48.902;9.410;2024-03-23T10:35:20;97564.03;;;10.13;66.09
9187;BME280;7273;48.902;9.410;2024-03-23T10:37:47;97559.75;;;10.02;66.04
9187;BME280;7273;48.902;9.410;2024-03-23T10:40:15;97569.13;;;9.81;64.49
9187;BME280;7273;48.902;9.410;2024-03-23T10:42:40;97575.34;;;9.81;65.63
9187;BME280;7273;48.902;9.410;2024-03-23T10:45:07;97580.50;;;9.49;65.54
9187;BME280;7273;48.902;9.410;2024-03-23T10:47:34;97584.25;;;9.48;66.90
9187;BME280;7273;48.902;9.410;2024-03-23T10:50:00;97575.13;;;9.44;67.37
9187;BME280;7273;48.902;9.410;2024-03-23T10:52:26;97577.84;;;9.39;67.45
9187;BME280;7273;48.902;9.410;2024-03-23T10:54:51;97572.75;;;9.37;67.58
9187;BME280;7273;48.902;9.410;2024-03-23T10:57:23;97570.59;;;9.34;67.76
9187;BME280;7273;48.902;9.410;2024-03-23T10:59:51;97578.78;;;9.19;66.59
9187;BME280;7273;48.902;9.410;2024-03-23T11:02:21;97594.66;;;9.31;67.25
9187;BME280;7273;48.902;9.410;2024-03-23T11:04:47;97611.66;;;9.26;67.49
9187;BME280;7273;48.902;9.410;2024-03-23T11:07:31;97618.53;;;9.04;67.31
9187;BME280;7273;48.902;9.410;2024-03-23T11:09:58;97642.69;;;8.60;66.11
9187;BME280;7273;48.902;9.410;2024-03-23T11:12:25;97662.66;;;8.14;68.54
9187;BME280;7273;48.902;9.410;2024-03-23T11:15:06;97676.41;;;7.72;70.12
9187;BME280;7273;48.902;9.410;2024-03-23T11:17:36;97678.22;;;7.47;71.75
9187;BME280;7273;48.902;9.410;2024-03-23T11:20:03;97672.81;;;7.37;72.81
9187;BME280;7273;48.902;9.410;2024-03-23T11:22:48;97648.09;;;7.30;71.97
9187;BME280;7273;48.902;9.410;2024-03-23T11:25:18;97631.13;;;7.24;71.60
9187;BME280;7273;48.902;9.410;2024-03-23T11:27:45;97626.50;;;7.10;72.47
9187;BME280;7273;48.902;9.410;2024-03-23T11:30:24;97622.78;;;7.21;73.20
9187;BME280;7273;48.902;9.410;2024-03-23T11:32:51;97633.00;;;7.24;73.44
9187;BME280;7273;48.902;9.410;2024-03-23T11:35:30;97629.50;;;7.33;72.59
9187;BME280;7273;48.902;9.410;2024-03-23T11:38:07;97631.44;;;7.88;73.07
9187;BME280;7273;48.902;9.410;2024-03-23T11:40:33;97637.09;;;8.16;73.74
9187;BME280;7273;48.902;9.410;2024-03-23T11:43:01;97631.69;;;8.47;73.57
9187;BME280;7273;48.902;9.410;2024-03-23T11:45:27;97633.50;;;8.61;73.76
9187;BME280;7273;48.902;9.410;2024-03-23T11:48:07;97639.72;;;8.67;73.19
9187;BME280;7273;48.902;9.410;2024-03-23T11:50:35;97643.66;;;8.89;72.72
9187;BME280;7273;48.902;9.410;2024-03-23T11:55:46;97648.81;;;8.86;71.58
9187;BME280;7273;48.902;9.410;2024-03-23T11:58:13;97640.75;;;8.71;70.92
9187;BME280;7273;48.902;9.410;2024-03-23T12:00:39;97625.44;;;8.61;70.53
9187;BME280;7273;48.902;9.410;2024-03-23T12:03:05;97621.72;;;8.47;70.59
9187;BME280;7273;48.902;9.410;2024-03-23T12:05:32;97623.59;;;8.37;70.87
9187;BME280;7273;48.902;9.410;2024-03-23T12:10:52;97612.88;;;8.06;72.27
9187;BME280;7273;48.902;9.410;2024-03-23T12:13:19;97614.75;;;7.96;72.89
9187;BME280;7273;48.902;9.410;2024-03-23T12:15:46;97613.97;;;7.90;72.93
9187;BME280;7273;48.902;9.410;2024-03-23T12:18:12;97625.78;;;7.94;72.78
9187;BME280;7273;48.902;9.410;2024-03-23T12:20:38;97628.75;;;7.93;71.55
9187;BME280;7273;48.902;9.410;2024-03-23T12:23:05;97621.50;;;7.88;72.59
9187;BME280;7273;48.902;9.410;2024-03-23T12:25:31;97618.25;;;7.96;71.25
9187;BME280;7273;48.902;9.410;2024-03-23T12:27:58;97622.00;;;7.95;72.06
9187;BME280;7273;48.902;9.410;2024-03-23T12:30:24;97623.91;;;8.00;71.79
9187;BME280;7273;48.902;9.410;2024-03-23T12:32:49;97622.28;;;8.04;71.42
9187;BME280;7273;48.902;9.410;2024-03-23T12:35:15;97619.59;;;8.09;70.74
9187;BME280;7273;48.902;9.410;2024-03-23T12:37:40;97617.16;;;8.17;70.82
9187;BME280;7273;48.902;9.410;2024-03-23T12:40:07;97613.66;;;8.27;69.57
9187;BME280;7273;48.902;9.410;2024-03-23T12:42:32;97607.97;;;8.49;69.05
9187;BME280;7273;48.902;9.410;2024-03-23T12:44:58;97599.56;;;8.60;68.88
9187;BME280;7273;48.902;9.410;2024-03-23T12:47:23;97596.31;;;8.63;67.49
9187;BME280;7273;48.902;9.410;2024-03-23T12:49:48;97595.75;;;8.66;66.95
9187;BME280;7273;48.902;9.410;2024-03-23T12:52:15;97592.50;;;8.74;67.05
9187;BME280;7273;48.902;9.410;2024-03-23T12:54:40;97603.28;;;8.69;66.59
9187;BME280;7273;48.902;9.410;2024-03-23T12:57:05;97606.53;;;8.71;66.13
9187;BME280;7273;48.902;9.410;2024-03-23T12:59:31;97601.69;;;8.73;66.71
9187;BME280;7273;48.902;9.410;2024-03-23T13:01:57;97605.22;;;8.69;63.38
9187;BME280;7273;48.902;9.410;2024-03-23T13:04:22;97606.50;;;8.81;65.15
9187;BME280;7273;48.902;9.410;2024-03-23T13:06:48;97597.53;;;8.96;64.87
9187;BME280;7273;48.902;9.410;2024-03-23T13:09:13;97600.44;;;9.04;65.51
9187;BME280;7273;48.902;9.410;2024-03-23T13:11:39;97598.22;;;9.21;65.17
9187;BME280;7273;48.902;9.410;2024-03-23T13:14:04;97580.91;;;9.61;64.86
9187;BME280;7273;48.902;9.410;2024-03-23T13:16:30;97577.16;;;9.91;64.92
9187;BME280;7273;48.902;9.410;2024-03-23T13:18:56;97570.97;;;10.19;64.14
9187;BME280;7273;48.902;9.410;2024-03-23T13:21:21;97569.09;;;10.43;59.83
9187;BME280;7273;48.902;9.410;2024-03-23T13:23:47;97576.03;;;10.54;59.58
9187;BME280;7273;48.902;9.410;2024-03-23T13:26:13;97570.31;;;10.55;61.81
9187;BME280;7273;48.902;9.410;2024-03-23T13:28:39;97570.13;;;10.47;62.12
9187;BME280;7273;48.902;9.410;2024-03-23T13:31:04;97569.66;;;10.40;62.62
9187;BME280;7273;48.902;9.410;2024-03-23T13:33:30;97566.25;;;10.34;62.67
9187;BME280;7273;48.902;9.410;2024-03-23T13:35:57;97563.06;;;10.27;63.09
9187;BME280;7273;48.902;9.410;2024-03-23T13:38:23;97553.84;;;10.28;63.24
9187;BME280;7273;48.902;9.410;2024-03-23T13:40:56;97547.72;;;10.23;63.13
9187;BME280;7273;48.902;9.410;2024-03-23T13:43:23;97541.72;;;10.26;63.46
9187;BME280;7273;48.902;9.410;2024-03-23T13:45:57;97532.41;;;10.37;63.53
9187;BME280;7273;48.902;9.410;2024-03-23T13:48:24;97530.59;;;10.51;61.47
9187;BME280;7273;48.902;9.410;2024-03-23T13:51:00;97525.78;;;10.71;61.83
9187;BME280;7273;48.902;9.410;2024-03-23T13:53:26;97518.03;;;10.83;60.51
9187;BME280;7273;48.902;9.410;2024-03-23T13:55:51;97521.19;;;10.91;59.11
9187;BME280;7273;48.902;9.410;2024-03-23T13:58:16;97524.88;;;10.76;59.25
9187;BME280;7273;48.902;9.410;2024-03-23T14:00:42;97517.44;;;10.68;58.97
9187;BME280;7273;48.902;9.410;2024-03-23T14:03:09;97519.91;;;10.64;60.97
9187;BME280;7273;48.902;9.410;2024-03-23T14:05:34;97542.47;;;10.55;60.73
9187;BME280;7273;48.902;9.410;2024-03-23T14:07:59;97564.63;;;10.05;56.83
9187;BME280;7273;48.902;9.410;2024-03-23T14:10:25;97579.00;;;9.67;60.89
9187;BME280;7273;48.902;9.410;2024-03-23T14:12:50;97592.72;;;9.31;63.87
9187;BME280;7273;48.902;9.410;2024-03-23T14:15:15;97586.75;;;8.91;65.54
9187;BME280;7273;48.902;9.410;2024-03-23T14:17:41;97599.81;;;8.69;66.55
9187;BME280;7273;48.902;9.410;2024-03-23T14:20:07;97614.47;;;8.38;67.79
9187;BME280;7273;48.902;9.410;2024-03-23T14:22:36;97621.78;;;7.97;69.51